Estación Meteorológica Peña el Pijo (Robertgarden) [ 04/24/19 15:35:10 CEST ]

Fecha Hora Presion(HPa) Temp (°C) Humedad % Rocio (°C) Viento ( m/s) Direccion Lluvia 1Hora(mm) Lluvia 24H(mm) LLuvia Total(mm)
2019-Feb-06 01:01:50 1016.100 1.7 78 -1.8         183.37
2019-Feb-06 02:04:07 1015.800 1.2 79 -2.1         183.37
2019-Feb-06 03:01:46 1015.700 0.9 80 -2.2         183.37
2019-Feb-06 04:01:47 1015.100 0.8 81 -2.1         183.37
2019-Feb-06 05:01:47 1014.700 0.9 82 -1.9         183.37
2019-Feb-06 06:01:31 1014.700 0.2 82 -2.5         183.37
2019-Feb-06 07:01:45 1014.700 0.2 83 -2.3         183.37
2019-Feb-06 08:01:42 1015.000 0.2 84 -2.2         183.37
2019-Feb-06 09:02:02 1015.000 0.4 85 -1.8         183.37
2019-Feb-06 10:01:42 1015.100 6.3 86 4.1         183.37
2019-Feb-06 11:01:39 1014.500 12.5 66 6.3         183.37
2019-Feb-06 12:01:37 1014.300 17.6 46 5.8         183.37
2019-Feb-06 13:01:57 1013.400 18.4 34 2.2         183.37
2019-Feb-06 14:01:47 1012.600 19.6 31 2.0         183.37
2019-Feb-06 15:01:53 1011.900 20.3 30 2.2         183.37
2019-Feb-06 16:01:46 1011.400 20.6 28 1.3         183.37
2019-Feb-06 17:01:35 1011.400 18.6 31 1.1         183.37
2019-Feb-06 18:01:44 1011.700 15.2 37 0.5         183.37
2019-Feb-06 19:01:31 1012.400 11.2 48 0.6         183.37
2019-Feb-06 20:01:34 1012.700 7.4 57 -0.6         183.37
2019-Feb-06 21:02:03 1012.800 6.1 63 -0.4         183.37
2019-Feb-06 22:01:37 1012.900 5.2 65 -0.9         183.37
2019-Feb-06 23:01:13 1013.100 3.0 68 -2.3         183.37

Temperatura Máxima:20°    Temperatura Mínima:
Presión Máxima:1016.100 Hpa    Presión Mínima:1011.400 Hpa


Volver